createdAt,value
2019-02-03T00:01:26.962Z,56.30
2019-02-03T00:03:54.910Z,47.38
2019-02-03T00:06:24.153Z,51.60
2019-02-03T00:08:52.078Z,44.73
2019-02-03T00:11:19.766Z,53.48
2019-02-03T00:13:47.641Z,55.03
2019-02-03T00:16:15.389Z,51.50
2019-02-03T00:18:45.048Z,52.50
2019-02-03T00:21:12.881Z,47.67
2019-02-03T00:23:40.550Z,48.00
2019-02-03T00:26:08.326Z,53.85
2019-02-03T00:28:36.131Z,52.27
2019-02-03T00:31:04.558Z,51.25
2019-02-03T00:33:32.453Z,51.13
2019-02-03T00:36:00.809Z,53.70
2019-02-03T00:38:28.622Z,54.58
2019-02-03T00:40:56.608Z,49.03
2019-02-03T00:43:24.449Z,51.90
2019-02-03T00:45:52.319Z,52.15
2019-02-03T00:48:20.101Z,60.88
2019-02-03T00:50:47.993Z,53.65
2019-02-03T00:53:15.659Z,56.53
2019-02-03T00:55:43.426Z,54.70
2019-02-03T00:58:11.102Z,60.05
2019-02-03T01:00:39.162Z,59.93
2019-02-03T01:03:06.943Z,61.68
2019-02-03T01:05:35.344Z,62.33
2019-02-03T01:08:04.956Z,52.60
2019-02-03T01:10:33.005Z,58.25
2019-02-03T01:13:00.784Z,50.65
2019-02-03T01:15:28.743Z,50.38
2019-02-03T01:17:56.597Z,47.60
2019-02-03T01:20:24.299Z,51.00
2019-02-03T01:22:52.341Z,54.60
2019-02-03T01:25:20.643Z,49.90
2019-02-03T01:27:48.498Z,50.55
2019-02-03T01:30:17.681Z,52.85
2019-02-03T01:32:47.025Z,47.30
2019-02-03T01:35:15.221Z,51.75
2019-02-03T01:37:43.074Z,53.83
2019-02-03T01:40:13.449Z,50.55
2019-02-03T01:42:42.798Z,44.38
2019-02-03T01:45:13.076Z,52.03
2019-02-03T01:47:42.437Z,50.25
2019-02-03T01:50:11.955Z,51.55
2019-02-03T01:52:40.929Z,49.42
2019-02-03T01:55:11.271Z,48.23
2019-02-03T01:57:40.550Z,51.35
2019-02-03T02:00:12.962Z,49.05
2019-02-03T02:02:42.379Z,44.90
2019-02-03T02:05:10.718Z,51.05
2019-02-03T02:07:50.871Z,42.03
2019-02-03T02:10:11.061Z,39.03
2019-02-03T02:12:40.348Z,45.70
2019-02-03T02:15:10.670Z,40.78
2019-02-03T02:17:39.935Z,40.98
2019-02-03T02:20:11.654Z,39.85
2019-02-03T02:22:40.930Z,36.55
2019-02-03T02:25:08.770Z,40.23
2019-02-03T02:27:36.654Z,45.15
2019-02-03T02:30:06.863Z,43.30
2019-02-03T02:32:36.742Z,43.13
2019-02-03T02:35:06.345Z,45.80
2019-02-03T02:37:35.637Z,43.33
2019-02-03T02:40:12.761Z,45.20
2019-02-03T02:42:36.168Z,41.58
2019-02-03T02:45:04.705Z,53.35
2019-02-03T02:47:34.364Z,42.27
2019-02-03T02:50:02.340Z,38.58
2019-02-03T02:52:31.605Z,34.23
2019-02-03T02:54:59.358Z,39.83
2019-02-03T02:57:27.021Z,39.92
2019-02-03T02:59:54.758Z,39.78
2019-02-03T03:02:22.935Z,47.48
2019-02-03T03:04:50.841Z,40.88
2019-02-03T03:07:18.773Z,39.78
2019-02-03T03:09:46.570Z,41.25
2019-02-03T03:12:14.315Z,43.58
2019-02-03T03:14:41.965Z,40.15
2019-02-03T03:17:10.229Z,39.70
2019-02-03T03:19:38.126Z,38.40
2019-02-03T03:22:06.058Z,38.53
2019-02-03T03:24:34.026Z,37.48
2019-02-03T03:27:01.897Z,42.67
2019-02-03T03:29:29.645Z,45.52
2019-02-03T03:31:57.994Z,44.08
2019-02-03T03:34:25.805Z,41.55
2019-02-03T03:36:53.773Z,37.17
2019-02-03T03:39:21.647Z,36.45
2019-02-03T03:41:49.598Z,39.75
2019-02-03T03:44:17.473Z,42.33
2019-02-03T03:46:45.445Z,40.17
2019-02-03T03:49:13.325Z,39.80
2019-02-03T03:51:42.666Z,41.37
2019-02-03T03:54:10.325Z,40.78
2019-02-03T03:56:38.021Z,41.48
2019-02-03T03:59:05.778Z,43.48
2019-02-03T04:01:33.482Z,42.03
2019-02-03T04:04:01.414Z,39.30
2019-02-03T04:06:29.487Z,36.13
2019-02-03T04:08:57.452Z,44.33
2019-02-03T04:11:25.101Z,41.48
2019-02-03T04:13:53.024Z,34.45
2019-02-03T04:16:21.889Z,41.40
2019-02-03T04:18:49.823Z,39.20
2019-02-03T04:21:17.494Z,34.67
2019-02-03T04:23:45.252Z,36.35
2019-02-03T04:26:12.922Z,34.48
2019-02-03T04:28:40.652Z,34.92
2019-02-03T04:31:08.329Z,41.85
2019-02-03T04:33:36.065Z,36.98
2019-02-03T04:36:04.029Z,37.65
2019-02-03T04:38:31.860Z,40.83
2019-02-03T04:40:59.546Z,37.80
2019-02-03T04:43:27.482Z,40.60
2019-02-03T04:45:55.263Z,39.78
2019-02-03T04:48:23.207Z,39.08
2019-02-03T04:50:50.896Z,39.50
2019-02-03T04:53:18.634Z,43.50
2019-02-03T04:55:46.378Z,37.65
2019-02-03T04:58:14.217Z,36.85
2019-02-03T05:00:42.181Z,38.70
2019-02-03T05:03:09.941Z,35.83
2019-02-03T05:05:38.081Z,39.15
2019-02-03T05:08:06.036Z,37.20
2019-02-03T05:10:33.938Z,38.20
2019-02-03T05:13:01.722Z,33.67
2019-02-03T05:15:29.693Z,35.58
2019-02-03T05:17:57.437Z,35.28
2019-02-03T05:20:26.612Z,40.85
2019-02-03T05:22:54.507Z,39.08
2019-02-03T05:25:22.639Z,34.35
2019-02-03T05:27:50.493Z,37.33
2019-02-03T05:30:23.688Z,40.38
2019-02-03T05:32:53.136Z,39.60
2019-02-03T05:35:21.445Z,37.05
2019-02-03T05:37:50.825Z,43.60
2019-02-03T05:40:18.688Z,39.25
2019-02-03T05:42:46.835Z,37.03
2019-02-03T05:45:16.254Z,36.40
2019-02-03T05:47:45.676Z,41.48
2019-02-03T05:50:15.282Z,41.30
2019-02-03T05:52:44.752Z,45.00
2019-02-03T05:55:13.154Z,44.33
2019-02-03T05:57:41.898Z,39.58
2019-02-03T06:00:12.977Z,37.00
2019-02-03T06:02:42.703Z,46.55
2019-02-03T06:05:10.481Z,42.40
2019-02-03T06:07:38.341Z,36.23
2019-02-03T06:10:09.368Z,40.40
2019-02-03T06:12:38.718Z,45.98
2019-02-03T06:15:25.863Z,44.42
2019-02-03T06:17:53.703Z,40.65
2019-02-03T06:20:21.475Z,41.80
2019-02-03T06:22:49.110Z,41.63
2019-02-03T06:25:16.946Z,42.13
2019-02-03T06:27:44.734Z,41.05
2019-02-03T06:30:56.728Z,44.40
2019-02-03T06:33:26.082Z,39.45
2019-02-03T06:35:53.817Z,41.45
2019-02-03T06:38:21.623Z,44.50
2019-02-03T06:40:49.318Z,47.43
2019-02-03T06:43:17.178Z,47.10
2019-02-03T06:46:04.474Z,42.35
2019-02-03T06:48:42.618Z,47.55
2019-02-03T06:51:10.502Z,45.40
2019-02-03T06:53:40.163Z,56.77
2019-02-03T06:56:07.842Z,47.15
2019-02-03T06:58:36.006Z,53.45
2019-02-03T07:01:04.095Z,51.18
2019-02-03T07:03:32.070Z,59.10
2019-02-03T07:05:59.848Z,54.48
2019-02-03T07:08:27.909Z,51.73
2019-02-03T07:10:55.713Z,46.70
2019-02-03T07:13:23.445Z,51.35
2019-02-03T07:15:51.283Z,54.05
2019-02-03T07:18:19.093Z,63.30
2019-02-03T07:20:46.845Z,55.45
2019-02-03T07:23:14.534Z,62.25
2019-02-03T07:25:42.318Z,53.68
2019-02-03T07:28:10.101Z,66.87
2019-02-03T07:30:38.414Z,67.25
2019-02-03T07:33:06.126Z,60.65
2019-02-03T07:35:33.951Z,66.55
2019-02-03T07:38:01.778Z,66.92
2019-02-03T07:40:29.867Z,65.72
2019-02-03T07:42:58.166Z,67.90
2019-02-03T07:45:26.213Z,63.50
2019-02-03T07:47:53.920Z,64.87
2019-02-03T07:50:21.773Z,63.45
2019-02-03T07:52:49.454Z,78.92
2019-02-03T07:55:17.207Z,62.85
2019-02-03T07:57:44.977Z,66.95
2019-02-03T08:00:12.892Z,67.40
2019-02-03T08:02:42.288Z,73.25
2019-02-03T08:05:10.407Z,71.37
2019-02-03T08:07:38.404Z,63.08
2019-02-03T08:10:06.283Z,75.72
2019-02-03T08:12:35.657Z,68.37
2019-02-03T08:15:06.104Z,72.15
2019-02-03T08:17:37.369Z,78.52
2019-02-03T08:20:06.803Z,64.60
2019-02-03T08:22:36.299Z,59.25
2019-02-03T08:25:05.488Z,71.77
2019-02-03T08:27:34.768Z,79.03
2019-02-03T08:30:06.018Z,77.12
2019-02-03T08:32:35.372Z,71.85
2019-02-03T08:35:05.067Z,66.82
2019-02-03T08:37:32.962Z,71.35
2019-02-03T08:40:00.855Z,78.22
2019-02-03T08:42:30.257Z,65.57
2019-02-03T08:44:58.179Z,63.63
2019-02-03T08:47:26.940Z,76.92
2019-02-03T08:49:55.634Z,80.50
2019-02-03T08:52:23.328Z,67.70
2019-02-03T08:54:58.297Z,65.42
2019-02-03T08:57:20.640Z,72.32
2019-02-03T08:59:48.806Z,68.45
2019-02-03T09:02:16.606Z,56.70
2019-02-03T09:04:44.588Z,54.63
2019-02-03T09:07:12.322Z,60.98
2019-02-03T09:09:40.128Z,57.67
2019-02-03T09:12:07.805Z,61.13
2019-02-03T09:14:36.083Z,57.85
2019-02-03T09:17:03.874Z,60.48
2019-02-03T09:19:31.866Z,53.13
2019-02-03T09:21:59.757Z,52.73
2019-02-03T09:24:27.531Z,56.28
2019-02-03T09:26:55.447Z,58.55
2019-02-03T09:29:23.128Z,65.30
2019-02-03T09:31:51.027Z,54.50
2019-02-03T09:34:18.823Z,60.98
2019-02-03T09:36:46.562Z,54.03
2019-02-03T09:39:14.288Z,60.48
2019-02-03T09:41:42.042Z,61.88
2019-02-03T09:44:09.971Z,55.75
2019-02-03T09:46:38.160Z,60.50
2019-02-03T09:49:06.069Z,57.43
2019-02-03T09:51:35.108Z,50.90
2019-02-03T09:54:03.320Z,48.75
2019-02-03T09:56:31.276Z,51.65
2019-02-03T09:58:59.068Z,51.95
2019-02-03T10:01:27.013Z,42.88
2019-02-03T10:03:54.815Z,47.58
2019-02-03T10:06:22.578Z,48.68
2019-02-03T10:08:50.391Z,41.00
2019-02-03T10:11:18.161Z,43.65
2019-02-03T10:13:45.963Z,40.80
2019-02-03T10:16:13.936Z,42.93
2019-02-03T10:18:41.941Z,36.68
2019-02-03T10:21:09.753Z,38.70
2019-02-03T10:23:37.757Z,37.03
2019-02-03T10:26:05.666Z,38.95
2019-02-03T10:28:33.572Z,33.42
2019-02-03T10:31:01.305Z,41.88
2019-02-03T10:33:29.609Z,39.18
2019-02-03T10:35:57.552Z,42.70
2019-02-03T10:38:25.434Z,38.42
2019-02-03T10:40:53.421Z,34.23
2019-02-03T10:43:21.418Z,35.03
2019-02-03T10:45:49.245Z,35.65
2019-02-03T10:48:17.166Z,36.38
2019-02-03T10:50:45.000Z,28.10
2019-02-03T10:53:12.795Z,31.80
2019-02-03T10:55:40.599Z,31.77
2019-02-03T10:58:08.654Z,28.80
2019-02-03T11:00:37.519Z,32.53
2019-02-03T11:03:06.910Z,30.48
2019-02-03T11:05:40.686Z,26.90
2019-02-03T11:08:11.730Z,27.98
2019-02-03T11:10:39.829Z,26.45
2019-02-03T11:13:07.736Z,28.07
2019-02-03T11:15:35.708Z,28.10
2019-02-03T11:18:04.251Z,27.73
2019-02-03T11:20:32.882Z,27.55
2019-02-03T11:23:02.883Z,28.98
2019-02-03T11:25:31.767Z,27.02
2019-02-03T11:27:59.908Z,33.10
2019-02-03T11:30:32.180Z,34.18
2019-02-03T11:33:06.551Z,24.87
2019-02-03T11:35:33.891Z,28.45
2019-02-03T11:38:01.909Z,32.55
2019-02-03T11:40:31.718Z,30.88
2019-02-03T11:43:01.096Z,37.88
2019-02-03T11:45:32.352Z,29.92
2019-02-03T11:48:02.106Z,26.15
2019-02-03T11:50:34.245Z,31.33
2019-02-03T11:53:05.989Z,28.85
2019-02-03T11:55:35.382Z,22.95
2019-02-03T11:58:07.137Z,28.65
2019-02-03T12:00:36.166Z,27.85
2019-02-03T12:03:05.213Z,29.60
2019-02-03T12:05:33.390Z,27.05
2019-02-03T12:08:01.254Z,28.12
2019-02-03T12:10:30.277Z,21.33
2019-02-03T12:12:58.877Z,27.15
2019-02-03T12:15:26.854Z,29.40
2019-02-03T12:17:54.949Z,27.73
2019-02-03T12:20:22.899Z,29.05
2019-02-03T12:22:50.889Z,26.23
2019-02-03T12:25:23.245Z,25.70
2019-02-03T12:27:53.129Z,28.35
2019-02-03T12:30:26.751Z,29.30
2019-02-03T12:32:56.191Z,25.30
2019-02-03T12:35:24.181Z,30.27
2019-02-03T12:37:52.348Z,28.38
2019-02-03T12:40:28.560Z,28.00
2019-02-03T12:42:58.480Z,27.82
2019-02-03T12:45:26.488Z,24.60
2019-02-03T12:47:54.753Z,30.65
2019-02-03T12:50:22.631Z,25.85
2019-02-03T12:52:50.695Z,27.30
2019-02-03T12:55:20.682Z,22.37
2019-02-03T12:57:50.148Z,25.40
2019-02-03T13:00:20.710Z,24.63
2019-02-03T13:02:50.011Z,23.60
2019-02-03T13:05:19.304Z,24.37
2019-02-03T13:07:48.749Z,22.65
2019-02-03T13:10:19.055Z,25.55
2019-02-03T13:12:48.392Z,24.75
2019-02-03T13:15:19.227Z,26.40
2019-02-03T13:17:48.573Z,25.82
2019-02-03T13:20:21.837Z,26.65
2019-02-03T13:22:52.809Z,30.90
2019-02-03T13:25:21.797Z,28.70
2019-02-03T13:27:49.881Z,29.72
2019-02-03T13:30:31.781Z,31.42
2019-02-03T13:33:01.204Z,25.95
2019-02-03T13:35:29.124Z,29.20
2019-02-03T13:37:56.993Z,30.23
2019-02-03T13:40:24.977Z,30.00
2019-02-03T13:42:52.841Z,35.28
2019-02-03T13:45:21.219Z,31.35
2019-02-03T13:47:50.878Z,22.80
2019-02-03T13:50:22.195Z,32.35
2019-02-03T13:52:52.024Z,29.65
2019-02-03T13:55:20.833Z,33.88
2019-02-03T13:57:49.271Z,31.12
2019-02-03T14:00:25.731Z,33.18
2019-02-03T14:02:55.185Z,28.98
2019-02-03T14:05:23.165Z,34.78
2019-02-03T14:07:51.159Z,33.18
2019-02-03T14:10:29.877Z,32.90
2019-02-03T14:12:59.811Z,34.88
2019-02-03T14:15:28.031Z,30.15
2019-02-03T14:17:56.419Z,36.40
2019-02-03T14:20:26.664Z,38.23
2019-02-03T14:22:56.721Z,29.63
2019-02-03T14:25:25.470Z,34.13
2019-02-03T14:27:53.344Z,29.52
2019-02-03T14:30:26.781Z,33.65
2019-02-03T14:32:58.413Z,38.42
2019-02-03T14:35:25.962Z,35.23
2019-02-03T14:37:53.886Z,35.78
2019-02-03T14:40:22.880Z,32.30
2019-02-03T14:43:01.147Z,31.15
2019-02-03T14:45:21.382Z,35.38
2019-02-03T14:47:50.762Z,32.60
2019-02-03T14:50:19.817Z,38.42
2019-02-03T14:52:49.920Z,35.60
2019-02-03T14:55:21.169Z,32.38
2019-02-03T14:57:50.547Z,35.40
2019-02-03T15:00:24.604Z,37.23
2019-02-03T15:02:53.981Z,33.48
2019-02-03T15:05:22.584Z,32.63
2019-02-03T15:07:50.662Z,37.85
2019-02-03T15:10:18.453Z,33.02
2019-02-03T15:12:46.178Z,36.83
2019-02-03T15:15:18.176Z,32.00
2019-02-03T15:17:47.670Z,30.23
2019-02-03T15:20:17.871Z,35.50
2019-02-03T15:22:47.334Z,32.05
2019-02-03T15:25:15.360Z,37.98
2019-02-03T15:27:43.301Z,51.30
2019-02-03T15:30:19.722Z,37.58
2019-02-03T15:32:48.470Z,34.50
2019-02-03T15:35:16.258Z,31.95
2019-02-03T15:37:44.186Z,32.08
2019-02-03T15:40:13.221Z,36.53
2019-02-03T15:42:42.622Z,34.98
2019-02-03T15:45:12.530Z,36.93
2019-02-03T15:47:41.937Z,32.08
2019-02-03T15:50:18.031Z,37.08
2019-02-03T15:52:47.514Z,43.02
2019-02-03T15:55:20.852Z,42.25
2019-02-03T15:57:50.694Z,33.65
2019-02-03T16:00:21.184Z,32.25
2019-02-03T16:02:50.537Z,35.13
2019-02-03T16:05:18.438Z,35.85
2019-02-03T16:07:46.358Z,32.95
2019-02-03T16:10:16.570Z,43.10
2019-02-03T16:12:46.486Z,36.38
2019-02-03T16:15:14.606Z,33.78
2019-02-03T16:17:42.706Z,37.30
2019-02-03T16:20:13.380Z,36.42
2019-02-03T16:22:42.811Z,36.40
2019-02-03T16:25:10.778Z,33.65
2019-02-03T16:27:38.966Z,32.83
2019-02-03T16:30:09.456Z,35.10
2019-02-03T16:32:38.953Z,35.10
2019-02-03T16:35:07.719Z,37.83
2019-02-03T16:37:37.587Z,36.25
2019-02-03T16:40:07.587Z,34.65
2019-02-03T16:42:37.007Z,33.73
2019-02-03T16:45:05.921Z,33.10
2019-02-03T16:47:35.500Z,33.90
2019-02-03T16:50:04.806Z,33.40
2019-02-03T16:52:34.242Z,31.93
2019-02-03T16:55:03.203Z,31.15
2019-02-03T16:57:32.615Z,31.42
2019-02-03T17:00:00.471Z,34.27
2019-02-03T17:02:28.429Z,34.48
2019-02-03T17:04:56.248Z,32.88
2019-02-03T17:07:24.206Z,32.40
2019-02-03T17:09:52.231Z,37.35
2019-02-03T17:12:20.245Z,28.62
2019-02-03T17:14:48.154Z,28.98
2019-02-03T17:17:16.010Z,27.58
2019-02-03T17:19:43.978Z,29.67
2019-02-03T17:22:11.919Z,27.20
2019-02-03T17:24:40.063Z,29.92
2019-02-03T17:27:07.986Z,26.77
2019-02-03T17:29:35.805Z,27.22
2019-02-03T17:32:03.741Z,26.93
2019-02-03T17:34:31.640Z,28.35
2019-02-03T17:36:59.496Z,21.42
2019-02-03T17:39:27.492Z,31.23
2019-02-03T17:41:55.645Z,26.57
2019-02-03T17:44:23.546Z,26.35
2019-02-03T17:46:51.383Z,25.35
2019-02-03T17:49:19.374Z,30.43
2019-02-03T17:51:47.206Z,24.95
2019-02-03T17:54:15.125Z,21.97
2019-02-03T17:56:47.120Z,29.72
2019-02-03T17:59:21.506Z,25.00
2019-02-03T18:01:49.346Z,27.20
2019-02-03T18:04:17.405Z,24.90
2019-02-03T18:06:45.149Z,28.20
2019-02-03T18:09:13.165Z,26.77
2019-02-03T18:11:41.473Z,24.35
2019-02-03T18:14:09.431Z,28.45
2019-02-03T18:16:37.554Z,26.02
2019-02-03T18:19:05.318Z,26.85
2019-02-03T18:21:33.371Z,26.00
2019-02-03T18:24:01.239Z,28.75
2019-02-03T18:26:29.069Z,22.65
2019-02-03T18:28:57.073Z,23.00
2019-02-03T18:31:25.103Z,25.25
2019-02-03T18:33:53.043Z,28.27
2019-02-03T18:36:21.030Z,23.90
2019-02-03T18:38:49.005Z,27.15
2019-02-03T18:41:16.830Z,25.12
2019-02-03T18:43:44.925Z,24.40
2019-02-03T18:46:13.009Z,22.95
2019-02-03T18:48:40.973Z,26.45
2019-02-03T18:51:09.023Z,23.60
2019-02-03T18:53:36.860Z,21.35
2019-02-03T18:56:04.585Z,29.87
2019-02-03T18:58:32.902Z,22.25
2019-02-03T19:01:00.801Z,23.77
2019-02-03T19:03:28.682Z,22.20
2019-02-03T19:05:56.493Z,19.90
2019-02-03T19:08:24.331Z,19.67
2019-02-03T19:10:52.205Z,20.02
2019-02-03T19:13:20.243Z,20.25
2019-02-03T19:15:48.202Z,18.52
2019-02-03T19:18:16.068Z,16.70
2019-02-03T19:20:43.877Z,17.82
2019-02-03T19:23:11.972Z,18.05
2019-02-03T19:25:40.318Z,15.60
2019-02-03T19:28:08.924Z,19.85
2019-02-03T19:30:36.809Z,21.27
2019-02-03T19:33:05.593Z,14.70
2019-02-03T19:35:33.573Z,12.90
2019-02-03T19:38:02.120Z,13.30
2019-02-03T19:40:31.270Z,14.45
2019-02-03T19:42:59.364Z,10.85
2019-02-03T19:45:28.294Z,14.35
2019-02-03T19:47:57.169Z,11.53
2019-02-03T19:50:27.672Z,13.45
2019-02-03T19:52:57.271Z,11.70
2019-02-03T19:55:25.434Z,11.20
2019-02-03T19:57:53.275Z,13.40
2019-02-03T20:00:30.496Z,11.33
2019-02-03T20:02:59.931Z,14.28
2019-02-03T20:05:29.157Z,16.42
2019-02-03T20:07:57.016Z,13.65
2019-02-03T20:12:53.874Z,12.18
2019-02-03T20:15:21.983Z,12.07
2019-02-03T20:17:50.277Z,12.58
2019-02-03T20:20:20.474Z,13.00
2019-02-03T20:22:49.903Z,12.80
2019-02-03T20:25:18.776Z,15.98
2019-02-03T20:27:47.143Z,13.10
2019-02-03T20:30:19.953Z,12.35
2019-02-03T20:32:49.269Z,12.13
2019-02-03T20:35:18.377Z,14.95
2019-02-03T20:37:47.938Z,14.38
2019-02-03T20:40:23.853Z,11.30
2019-02-03T20:42:53.184Z,13.75
2019-02-03T20:45:21.623Z,13.18
2019-02-03T20:47:49.726Z,12.30
2019-02-03T20:50:19.098Z,12.95
2019-02-03T20:52:48.401Z,12.55
2019-02-03T20:55:17.128Z,15.10
2019-02-03T20:57:46.145Z,18.23
2019-02-03T21:00:17.298Z,13.75
2019-02-03T21:02:46.689Z,18.75
2019-02-03T21:05:14.850Z,10.82
2019-02-03T21:07:42.845Z,10.43
2019-02-03T21:10:12.887Z,9.83
2019-02-03T21:12:42.276Z,8.23
2019-02-03T21:15:12.534Z,11.00
2019-02-03T21:17:42.062Z,12.40
2019-02-03T21:20:15.921Z,10.43
2019-02-03T21:22:46.345Z,11.80
2019-02-03T21:25:14.903Z,9.18
2019-02-03T21:27:43.598Z,11.22
2019-02-03T21:30:14.987Z,10.50
2019-02-03T21:32:44.377Z,10.75
2019-02-03T21:35:12.184Z,12.73
2019-02-03T21:37:40.054Z,9.98
2019-02-03T21:40:11.233Z,10.08
2019-02-03T21:42:40.583Z,11.03
2019-02-03T21:45:08.958Z,9.35
2019-02-03T21:47:37.578Z,9.83
2019-02-03T21:50:08.825Z,10.80
2019-02-03T21:52:38.173Z,9.88
2019-02-03T21:55:07.557Z,8.23
2019-02-03T21:57:36.890Z,9.38
2019-02-03T22:00:08.173Z,10.28
2019-02-03T22:02:37.474Z,10.20
2019-02-03T22:05:05.569Z,10.48
2019-02-03T22:07:36.295Z,9.85
2019-02-03T22:10:04.700Z,8.35
2019-02-03T22:12:34.102Z,7.70
2019-02-03T22:15:01.819Z,8.65
2019-02-03T22:17:31.130Z,9.63
2019-02-03T22:19:58.946Z,11.55
2019-02-03T22:22:26.655Z,11.80
2019-02-03T22:24:54.411Z,12.60
2019-02-03T22:27:22.177Z,9.38
2019-02-03T22:29:49.963Z,9.23
2019-02-03T22:32:17.893Z,11.33
2019-02-03T22:34:45.695Z,8.68
2019-02-03T22:37:13.459Z,9.23
2019-02-03T22:39:41.408Z,11.20
2019-02-03T22:42:09.265Z,9.53
2019-02-03T22:44:37.045Z,10.75
2019-02-03T22:47:04.960Z,8.88
2019-02-03T22:49:33.197Z,7.17
2019-02-03T22:52:00.942Z,8.93
2019-02-03T22:54:28.675Z,8.08
2019-02-03T22:56:56.530Z,10.20
2019-02-03T22:59:24.289Z,8.73
2019-02-03T23:01:53.060Z,7.83
2019-02-03T23:04:26.958Z,8.08
2019-02-03T23:06:54.733Z,7.55
2019-02-03T23:09:32.103Z,6.55
2019-02-03T23:12:01.510Z,9.58
2019-02-03T23:14:30.801Z,7.25
2019-02-03T23:16:59.074Z,8.98
2019-02-03T23:19:26.963Z,7.08
2019-02-03T23:21:54.717Z,10.40
2019-02-03T23:24:22.413Z,9.68
2019-02-03T23:26:50.240Z,10.40
2019-02-03T23:29:18.030Z,8.63
2019-02-03T23:31:45.838Z,7.45
2019-02-03T23:34:13.721Z,7.78
2019-02-03T23:36:41.503Z,10.32
2019-02-03T23:39:11.733Z,8.43
2019-02-03T23:41:39.445Z,7.92
2019-02-03T23:44:07.443Z,6.80
2019-02-03T23:46:35.196Z,10.95
2019-02-03T23:49:03.464Z,10.70
2019-02-03T23:51:31.256Z,8.25
2019-02-03T23:53:59.181Z,8.80
2019-02-03T23:56:26.986Z,7.60
2019-02-03T23:58:54.802Z,8.83
